Time;durP1;ratioP1;P1;durP2;ratioP2;P2;SDS_P1;SDS_P2;PMS_P1;PMS_P2;Temp;Humidity;BMP_temperature;BMP_pressure;BME280_temperature;BME280_humidity;BME280_pressure;Samples;Min_cycle;Max_cycle;Signal;HPM_P1;HPM_P2
2023/08/16 00:00:20;;;;;;;;;;;;;;;23.66;77.43;101420.66;5000892;28;4113;-69
2023/08/16 00:02:48;;;;;;;;;;;;;;;23.62;77.32;101434.97;4998597;28;4188;-67
2023/08/16 00:05:14;;;;;;;;;;;;;;;23.61;77.70;101421.91;4998510;28;4016;-70
2023/08/16 00:07:41;;;;;;;;;;;;;;;23.63;77.55;101430.66;5001305;28;3958;-68
2023/08/16 00:10:11;;;;;;;;;;;;;;;23.65;77.42;101445.22;4996881;28;4157;-68
2023/08/16 00:12:38;;;;;;;;;;;;;;;23.67;77.30;101461.91;4999842;28;4028;-69
2023/08/16 00:15:06;;;;;;;;;;;;;;;23.63;77.13;101450.91;4998435;28;4065;-69
2023/08/16 00:17:33;;;;;;;;;;;;;;;23.64;77.30;101432.16;4999924;28;4238;-69
2023/08/16 00:19:59;;;;;;;;;;;;;;;23.57;77.00;101413.06;4998553;28;4185;-68
2023/08/16 00:22:26;;;;;;;;;;;;;;;23.55;77.32;101393.50;4997975;28;4487;-69
2023/08/16 00:24:52;;;;;;;;;;;;;;;23.52;76.90;101396.94;4998702;28;4127;-69
2023/08/16 00:27:19;;;;;;;;;;;;;;;23.48;77.33;101399.66;5001932;28;4178;-68
2023/08/16 00:29:46;;;;;;;;;;;;;;;23.47;76.87;101401.06;4995329;28;3989;-69
2023/08/16 00:32:12;;;;;;;;;;;;;;;23.50;76.72;101400.53;4999135;28;4063;-69
2023/08/16 00:34:39;;;;;;;;;;;;;;;23.48;76.72;101391.75;5010436;28;4091;-68
2023/08/16 00:37:05;;;;;;;;;;;;;;;23.46;76.40;101405.38;5014156;28;4079;-68
2023/08/16 00:39:32;;;;;;;;;;;;;;;23.47;76.22;101401.06;5001170;28;4003;-68
2023/08/16 00:41:59;;;;;;;;;;;;;;;23.51;76.09;101407.78;5014282;28;4044;-69
2023/08/16 00:44:25;;;;;;;;;;;;;;;23.41;76.20;101398.69;4998588;28;4232;-69
2023/08/16 00:46:53;;;;;;;;;;;;;;;23.46;75.91;101399.59;4998292;28;4152;-69
2023/08/16 00:49:21;;;;;;;;;;;;;;;23.49;75.94;101386.72;5013280;28;4133;-69
2023/08/16 00:51:48;;;;;;;;;;;;;;;23.50;75.89;101391.09;4998624;28;4201;-69
2023/08/16 00:54:14;;;;;;;;;;;;;;;23.48;75.88;101385.22;5001192;28;4141;-69
2023/08/16 00:56:40;;;;;;;;;;;;;;;23.48;75.75;101388.88;5015640;28;4162;-69
2023/08/16 00:59:07;;;;;;;;;;;;;;;23.46;75.69;101388.03;5005152;28;4199;-68
2023/08/16 01:01:33;;;;;;;;;;;;;;;23.47;75.70;101395.28;4996804;28;4126;-68
2023/08/16 01:04:00;;;;;;;;;;;;;;;23.47;75.74;101390.25;5013054;28;4136;-68
2023/08/16 01:06:26;;;;;;;;;;;;;;;23.42;76.14;101395.13;4999265;28;4186;-69
2023/08/16 01:08:52;;;;;;;;;;;;;;;23.44;76.41;101402.41;5009597;28;4290;-69
2023/08/16 01:11:39;;;;;;;;;;;;;;;23.46;76.48;101402.50;4998093;28;4031;-69
2023/08/16 01:14:15;;;;;;;;;;;;;;;23.45;76.75;101404.63;4999178;28;4159;-68
2023/08/16 01:16:41;;;;;;;;;;;;;;;23.42;76.86;101409.56;4999554;28;4199;-68
2023/08/16 01:19:09;;;;;;;;;;;;;;;23.45;76.80;101409.66;5000143;28;4541;-68
2023/08/16 01:21:39;;;;;;;;;;;;;;;23.45;77.05;101415.44;4997918;28;3998;-68
2023/08/16 01:24:14;;;;;;;;;;;;;;;23.43;76.91;101413.19;5018120;28;4151;-68
2023/08/16 01:26:40;;;;;;;;;;;;;;;23.42;77.07;101421.13;5017101;28;4304;-68
2023/08/16 01:29:07;;;;;;;;;;;;;;;23.44;77.13;101425.53;4994557;28;4387;-68
2023/08/16 01:31:33;;;;;;;;;;;;;;;23.44;77.13;101419.75;5000807;28;4184;-68
2023/08/16 01:34:00;;;;;;;;;;;;;;;23.42;77.17;101420.41;4996278;28;4167;-68
2023/08/16 01:36:27;;;;;;;;;;;;;;;23.40;77.19;101418.16;5014097;28;4094;-68
2023/08/16 01:38:53;;;;;;;;;;;;;;;23.41;77.14;101422.53;5001587;28;4315;-68
2023/08/16 01:41:21;;;;;;;;;;;;;;;23.40;77.34;101417.41;5014348;28;4146;-68
2023/08/16 01:43:47;;;;;;;;;;;;;;;23.40;77.34;101420.31;4993426;28;4085;-68
2023/08/16 01:46:14;;;;;;;;;;;;;;;23.42;77.02;101412.47;4974527;28;4221;-68
2023/08/16 01:48:40;;;;;;;;;;;;;;;23.43;77.23;101418.97;4997185;28;4340;-68
2023/08/16 01:51:07;;;;;;;;;;;;;;;23.39;77.09;101422.47;4994375;28;4474;-68
2023/08/16 01:53:34;;;;;;;;;;;;;;;23.38;77.49;101418.06;4998940;28;4177;-68
2023/08/16 01:56:00;;;;;;;;;;;;;;;23.40;77.01;101421.03;4995419;28;4175;-68
2023/08/16 01:58:26;;;;;;;;;;;;;;;23.38;77.50;101415.16;4994158;28;3959;-68
2023/08/16 02:00:53;;;;;;;;;;;;;;;23.40;77.17;101420.31;4994846;28;4346;-68
2023/08/16 02:03:19;;;;;;;;;;;;;;;23.43;77.05;101407.41;4998336;28;4150;-68
2023/08/16 02:05:46;;;;;;;;;;;;;;;23.42;77.19;101406.69;4994725;28;4076;-68
2023/08/16 02:08:12;;;;;;;;;;;;;;;23.42;77.06;101412.47;4996007;28;4255;-67
2023/08/16 02:10:39;;;;;;;;;;;;;;;23.41;76.95;101416.78;4996915;28;4033;-68
2023/08/16 02:13:05;;;;;;;;;;;;;;;23.42;77.21;101415.34;4997163;28;4187;-68
2023/08/16 02:15:32;;;;;;;;;;;;;;;23.41;77.25;101411.00;5012624;28;4205;-68
2023/08/16 02:17:58;;;;;;;;;;;;;;;23.41;77.28;101416.78;4994010;28;4085;-68
2023/08/16 02:20:25;;;;;;;;;;;;;;;23.40;77.29;101414.53;4996676;28;4017;-69
2023/08/16 02:22:51;;;;;;;;;;;;;;;23.37;77.37;101410.81;4994648;28;4174;-67
2023/08/16 02:25:18;;;;;;;;;;;;;;;23.39;77.09;101407.28;5012260;28;4074;-68
2023/08/16 02:27:44;;;;;;;;;;;;;;;23.39;77.19;101404.38;4996186;28;4139;-68
2023/08/16 02:30:10;;;;;;;;;;;;;;;23.38;77.49;101412.28;4994974;28;4136;-68
2023/08/16 02:32:37;;;;;;;;;;;;;;;23.39;77.47;101418.81;4994986;28;4019;-69
2023/08/16 02:35:03;;;;;;;;;;;;;;;23.39;77.48;101413.78;4992832;28;4342;-69
2023/08/16 02:37:30;;;;;;;;;;;;;;;23.38;77.53;101420.94;4993746;28;4065;-68
2023/08/16 02:39:58;;;;;;;;;;;;;;;23.38;77.75;101418.06;4996726;28;4021;-69
2023/08/16 02:42:24;;;;;;;;;;;;;;;23.33;77.77;101418.56;4996682;28;4138;-69
2023/08/16 02:44:51;;;;;;;;;;;;;;;23.33;77.88;101422.19;5000463;28;4152;-70
2023/08/16 02:47:17;;;;;;;;;;;;;;;23.31;78.05;101418.47;4998290;28;4159;-69
2023/08/16 02:49:45;;;;;;;;;;;;;;;23.28;77.83;101426.31;5011066;28;4258;-69
2023/08/16 02:52:12;;;;;;;;;;;;;;;23.28;78.10;101423.41;4992314;28;4146;-69
2023/08/16 02:54:39;;;;;;;;;;;;;;;23.29;77.83;101419.13;4996015;28;4206;-69
2023/08/16 02:57:05;;;;;;;;;;;;;;;23.33;77.48;101427.97;4994468;28;4119;-69
2023/08/16 02:59:42;;;;;;;;;;;;;;;23.27;77.83;101430.59;5009786;28;4376;-69
2023/08/16 03:02:08;;;;;;;;;;;;;;;23.28;77.57;101434.97;5008671;28;4351;-69
2023/08/16 03:04:39;;;;;;;;;;;;;;;23.27;77.67;101436.38;5010368;28;4111;-69
2023/08/16 03:07:06;;;;;;;;;;;;;;;23.28;77.37;101437.88;4994591;28;3950;-69
2023/08/16 03:09:32;;;;;;;;;;;;;;;23.23;77.66;101436.22;4993990;28;4423;-69
2023/08/16 03:11:59;;;;;;;;;;;;;;;23.28;77.56;101437.88;4999768;28;4180;-68
2023/08/16 03:14:25;;;;;;;;;;;;;;;23.30;77.49;101446.63;4998360;28;4105;-69
2023/08/16 03:16:52;;;;;;;;;;;;;;;23.31;77.22;101439.44;4997675;28;4497;-69
2023/08/16 03:19:18;;;;;;;;;;;;;;;23.27;77.54;101447.94;4997699;28;4032;-68
2023/08/16 03:21:45;;;;;;;;;;;;;;;23.26;77.62;101440.66;4999600;28;4143;-69
2023/08/16 03:24:11;;;;;;;;;;;;;;;23.28;77.41;101443.66;4998775;28;4191;-71
2023/08/16 03:26:38;;;;;;;;;;;;;;;23.27;77.34;101436.38;4999860;28;4133;-73
2023/08/16 03:29:05;;;;;;;;;;;;;;;23.29;77.18;101439.34;5013826;28;3990;-69
2023/08/16 03:31:33;;;;;;;;;;;;;;;23.29;77.11;101439.34;4999504;28;3969;-69
2023/08/16 03:34:00;;;;;;;;;;;;;;;23.27;77.05;101442.16;4996470;28;4518;-70
2023/08/16 03:36:27;;;;;;;;;;;;;;;23.25;77.21;101444.19;5014515;28;4032;-69
2023/08/16 03:38:53;;;;;;;;;;;;;;;23.25;77.09;101450.75;4998162;28;3933;-69
2023/08/16 03:41:20;;;;;;;;;;;;;;;23.23;77.19;101447.75;4997974;28;4090;-69
2023/08/16 03:43:46;;;;;;;;;;;;;;;23.25;77.02;101444.97;5005114;28;3973;-69
2023/08/16 03:46:13;;;;;;;;;;;;;;;23.27;76.74;101445.03;4996897;28;5566;-69
2023/08/16 03:48:39;;;;;;;;;;;;;;;23.27;76.55;101453.69;4999190;28;4333;-69
2023/08/16 03:51:06;;;;;;;;;;;;;;;23.27;76.59;101453.69;4996832;28;4138;-69
2023/08/16 03:53:32;;;;;;;;;;;;;;;23.26;76.70;101457.25;4998914;28;4137;-69
2023/08/16 03:55:58;;;;;;;;;;;;;;;23.21;76.53;101462.84;5012252;28;4189;-69
2023/08/16 03:58:25;;;;;;;;;;;;;;;23.20;76.68;101467.16;4997237;28;4131;-69
2023/08/16 04:00:51;;;;;;;;;;;;;;;23.25;76.38;101462.31;4996852;28;4991;-69
2023/08/16 04:03:18;;;;;;;;;;;;;;;23.25;76.24;101473.88;5008677;28;4080;-69
2023/08/16 04:05:45;;;;;;;;;;;;;;;23.23;75.99;101476.66;4997065;28;4078;-70
2023/08/16 04:08:12;;;;;;;;;;;;;;;23.09;76.50;101476.00;4996969;28;4083;-69
2023/08/16 04:10:39;;;;;;;;;;;;;;;23.04;77.09;101477.22;5001333;28;3993;-68
2023/08/16 04:13:07;;;;;;;;;;;;;;;23.06;76.87;101480.94;5001393;28;4155;-69
2023/08/16 04:15:34;;;;;;;;;;;;;;;23.05;77.08;101485.25;5009291;28;4134;-69
2023/08/16 04:18:00;;;;;;;;;;;;;;;23.01;77.24;101485.06;5004533;28;4163;-69
2023/08/16 04:20:27;;;;;;;;;;;;;;;23.00;77.27;101484.31;4996851;28;3943;-69
2023/08/16 04:22:54;;;;;;;;;;;;;;;22.98;77.06;101486.34;4994261;28;4220;-69
2023/08/16 04:25:20;;;;;;;;;;;;;;;22.96;77.30;101489.88;4996245;28;4502;-68
2023/08/16 04:27:47;;;;;;;;;;;;;;;23.02;77.17;101497.34;4995663;28;4424;-68
2023/08/16 04:30:14;;;;;;;;;;;;;;;22.95;77.25;101497.06;5004245;28;4120;-70
2023/08/16 04:32:40;;;;;;;;;;;;;;;22.90;77.54;101489.59;4998979;28;4160;-78
2023/08/16 04:35:07;;;;;;;;;;;;;;;22.80;78.44;101500.69;4995209;28;4109;-71
2023/08/16 04:37:33;;;;;;;;;;;;;;;22.71;78.84;101502.44;4993640;28;4094;-70
2023/08/16 04:40:00;;;;;;;;;;;;;;;22.57;79.95;101499.63;5010484;28;4069;-72
2023/08/16 04:42:30;;;;;;;;;;;;;;;22.57;80.24;101501.78;5016126;28;4126;-71
2023/08/16 04:45:01;;;;;;;;;;;;;;;22.52;80.34;101500.84;4998596;28;4060;-71
2023/08/16 04:47:27;;;;;;;;;;;;;;;22.52;80.50;101500.84;4999651;28;4366;-72
2023/08/16 04:49:54;;;;;;;;;;;;;;;22.62;80.91;101502.72;4998006;28;4072;-71
2023/08/16 04:52:21;;;;;;;;;;;;;;;22.57;81.03;101502.53;5016455;28;4143;-71
2023/08/16 04:54:47;;;;;;;;;;;;;;;22.51;81.60;101502.22;4998583;28;4453;-70
2023/08/16 04:57:14;;;;;;;;;;;;;;;22.48;81.68;101497.75;5002640;28;3974;-71
2023/08/16 04:59:40;;;;;;;;;;;;;;;22.52;81.84;101495.06;4997952;28;4047;-71
2023/08/16 05:02:07;;;;;;;;;;;;;;;22.48;82.27;101494.13;5017063;28;4440;-71
2023/08/16 05:04:34;;;;;;;;;;;;;;;22.51;81.90;101499.34;5014413;28;4224;-72
2023/08/16 05:07:00;;;;;;;;;;;;;;;22.48;82.40;101500.66;5001236;28;4218;-72
2023/08/16 05:09:27;;;;;;;;;;;;;;;22.42;82.88;101500.34;5019541;28;4113;-72
2023/08/16 05:11:53;;;;;;;;;;;;;;;22.47;82.31;101501.28;4997551;28;4118;-73
2023/08/16 05:14:20;;;;;;;;;;;;;;;22.52;82.56;101505.88;4998743;28;4185;-72
2023/08/16 05:16:46;;;;;;;;;;;;;;;22.49;83.00;101513.66;5009545;28;4187;-73
2023/08/16 05:19:13;;;;;;;;;;;;;;;22.48;83.19;101509.31;4998615;28;4072;-72
2023/08/16 05:21:39;;;;;;;;;;;;;;;22.48;83.23;101506.41;5000490;28;3942;-72
2023/08/16 05:24:06;;;;;;;;;;;;;;;22.50;83.15;101506.50;4999864;28;4260;-73
2023/08/16 05:26:32;;;;;;;;;;;;;;;22.51;83.16;101518.81;4997909;28;3998;-73
2023/08/16 05:28:59;;;;;;;;;;;;;;;22.49;83.53;101513.66;5000246;28;5125;-72
2023/08/16 05:31:25;;;;;;;;;;;;;;;22.48;83.69;101517.97;5002595;28;4306;-72
2023/08/16 05:33:52;;;;;;;;;;;;;;;22.44;84.83;101535.06;4997712;28;4359;-72
2023/08/16 05:36:19;;;;;;;;;;;;;;;22.48;84.97;101532.38;4998329;28;4150;-73
2023/08/16 05:38:45;;;;;;;;;;;;;;;22.52;84.30;101532.59;4997975;28;4107;-72
2023/08/16 05:41:12;;;;;;;;;;;;;;;22.56;85.00;101529.13;4999235;28;4069;-72
2023/08/16 05:43:38;;;;;;;;;;;;;;;22.58;85.11;101532.88;5002357;28;3975;-72
2023/08/16 05:46:05;;;;;;;;;;;;;;;22.59;85.37;101527.88;5004035;28;4232;-73
2023/08/16 05:48:31;;;;;;;;;;;;;;;22.57;85.31;101537.16;4998300;28;3966;-72
2023/08/16 05:50:57;;;;;;;;;;;;;;;22.61;85.75;101536.63;4999872;28;4350;-73
2023/08/16 05:53:24;;;;;;;;;;;;;;;22.57;86.42;101545.09;5004488;28;4065;-72
2023/08/16 05:55:50;;;;;;;;;;;;;;;22.61;86.14;101547.41;5005024;28;4199;-72
2023/08/16 05:58:17;;;;;;;;;;;;;;;22.63;86.67;101541.72;4999637;28;4143;-72
2023/08/16 06:00:45;;;;;;;;;;;;;;;22.68;85.99;101543.44;5000847;28;4246;-72
2023/08/16 06:03:14;;;;;;;;;;;;;;;22.61;86.53;101547.41;5001882;28;4009;-72
2023/08/16 06:05:41;;;;;;;;;;;;;;;22.63;86.21;101548.28;4999675;28;4110;-72
2023/08/16 06:08:08;;;;;;;;;;;;;;;22.70;86.30;101555.06;4999521;28;4931;-73
2023/08/16 06:10:35;;;;;;;;;;;;;;;22.68;85.77;101552.84;5001487;28;4123;-72
2023/08/16 06:13:02;;;;;;;;;;;;;;;22.72;86.20;101560.94;5000611;28;4137;-72
2023/08/16 06:15:28;;;;;;;;;;;;;;;22.72;85.67;101575.38;5004597;28;4122;-72
2023/08/16 06:17:55;;;;;;;;;;;;;;;22.74;85.72;101561.03;5000713;28;4050;-72
2023/08/16 06:20:21;;;;;;;;;;;;;;;22.78;85.58;101567.75;5002622;28;4182;-72
2023/08/16 06:22:48;;;;;;;;;;;;;;;22.82;85.17;101567.19;4999084;28;3971;-72
2023/08/16 06:25:14;;;;;;;;;;;;;;;22.84;84.81;101570.19;4997045;28;4199;-72
2023/08/16 06:27:40;;;;;;;;;;;;;;;22.87;85.31;101573.91;5009279;28;4169;-72
2023/08/16 06:30:07;;;;;;;;;;;;;;;22.87;85.52;101568.88;4998600;28;4228;-72
2023/08/16 06:32:34;;;;;;;;;;;;;;;22.87;85.53;101573.91;4999497;28;4072;-73
2023/08/16 06:35:00;;;;;;;;;;;;;;;22.90;85.61;101584.91;4998264;28;4369;-72
2023/08/16 06:37:27;;;;;;;;;;;;;;;22.89;86.00;101580.53;4998897;28;4093;-72
2023/08/16 06:39:53;;;;;;;;;;;;;;;22.87;85.88;101583.31;4999218;28;4839;-72
2023/08/16 06:42:20;;;;;;;;;;;;;;;22.86;85.78;101584.72;4998166;28;4335;-72
2023/08/16 06:44:46;;;;;;;;;;;;;;;22.23;90.59;101585.28;4998827;28;3996;-74
2023/08/16 06:47:12;;;;;;;;;;;;;;;21.94;95.10;101586.69;4998134;28;4198;-73
2023/08/16 06:49:39;;;;;;;;;;;;;;;22.18;93.47;101586.44;4997921;28;4550;-73
2023/08/16 06:52:05;;;;;;;;;;;;;;;22.28;92.29;101583.34;4999556;28;4518;-73
2023/08/16 06:54:32;;;;;;;;;;;;;;;22.36;92.78;101593.16;4997707;28;4069;-72
2023/08/16 06:56:59;;;;;;;;;;;;;;;22.42;92.06;101586.91;4997316;28;5166;-72
2023/08/16 06:59:26;;;;;;;;;;;;;;;22.16;92.63;101592.09;4996730;28;4031;-72
2023/08/16 07:01:53;;;;;;;;;;;;;;;22.39;91.47;101594.00;4997932;28;4398;-70
2023/08/16 07:04:19;;;;;;;;;;;;;;;22.73;87.89;101583.38;4998296;28;4167;-71
2023/08/16 07:06:46;;;;;;;;;;;;;;;22.90;86.36;101587.78;5000751;28;4097;-71
2023/08/16 07:09:12;;;;;;;;;;;;;;;23.00;85.77;101593.34;5000820;28;4346;-71
2023/08/16 07:11:38;;;;;;;;;;;;;;;23.04;85.13;101592.78;5000992;28;4057;-71
2023/08/16 07:14:05;;;;;;;;;;;;;;;23.09;85.28;101588.66;4998238;28;4076;-71
2023/08/16 07:16:32;;;;;;;;;;;;;;;23.10;84.48;101588.03;5001793;28;4227;-71
2023/08/16 07:18:59;;;;;;;;;;;;;;;23.11;84.24;101591.66;5000475;28;4369;-71
2023/08/16 07:21:25;;;;;;;;;;;;;;;23.15;83.40;101597.63;5001439;28;4196;-71
2023/08/16 07:23:52;;;;;;;;;;;;;;;23.16;83.09;101593.34;4999151;28;4165;-70
2023/08/16 07:26:18;;;;;;;;;;;;;;;23.17;82.70;101594.84;5000780;28;4240;-71
2023/08/16 07:28:45;;;;;;;;;;;;;;;23.20;82.40;101605.84;5002272;28;4177;-70
2023/08/16 07:31:11;;;;;;;;;;;;;;;23.20;81.93;101600.06;5003537;28;4082;-70
2023/08/16 07:33:38;;;;;;;;;;;;;;;23.22;82.04;101602.28;5005802;28;4168;-70
2023/08/16 07:36:04;;;;;;;;;;;;;;;23.23;81.48;101603.03;4998485;28;3976;-70
2023/08/16 07:38:32;;;;;;;;;;;;;;;23.19;81.83;101610.13;4999959;28;4069;-68
2023/08/16 07:40:59;;;;;;;;;;;;;;;23.18;82.85;101614.41;4998410;28;3992;-69
2023/08/16 07:43:27;;;;;;;;;;;;;;;22.96;86.26;101616.22;4998881;28;4214;-69
2023/08/16 07:45:53;;;;;;;;;;;;;;;22.93;87.18;101624.03;5004800;28;4006;-68
2023/08/16 07:48:20;;;;;;;;;;;;;;;22.89;87.46;101620.97;4998434;28;4608;-69
2023/08/16 07:50:46;;;;;;;;;;;;;;;22.95;86.43;101615.47;4999458;28;4168;-69
2023/08/16 07:53:13;;;;;;;;;;;;;;;22.75;85.98;101626.06;5002124;28;4199;-69
2023/08/16 07:55:39;;;;;;;;;;;;;;;22.71;86.80;101631.63;5004671;28;4487;-69
2023/08/16 07:58:06;;;;;;;;;;;;;;;22.89;86.62;101629.63;5005111;28;4194;-69
2023/08/16 08:00:32;;;;;;;;;;;;;;;22.85;86.54;101623.66;5002551;28;4026;-70
2023/08/16 08:02:59;;;;;;;;;;;;;;;23.08;87.43;101622.59;5004145;28;4121;-72
2023/08/16 08:05:26;;;;;;;;;;;;;;;22.80;87.98;101627.75;5000124;28;3997;-71
2023/08/16 08:07:53;;;;;;;;;;;;;;;22.76;88.15;101628.28;4998604;28;4297;-70
2023/08/16 08:10:20;;;;;;;;;;;;;;;23.08;86.17;101636.31;5002225;28;4488;-74
2023/08/16 08:12:46;;;;;;;;;;;;;;;23.17;84.98;101629.50;5002505;28;4053;-74
2023/08/16 08:15:13;;;;;;;;;;;;;;;23.21;84.70;101629.72;5001905;28;4100;-73
2023/08/16 08:17:39;;;;;;;;;;;;;;;23.27;83.73;101644.41;5003243;28;4292;-74
2023/08/16 08:20:07;;;;;;;;;;;;;;;23.31;83.54;101633.06;5002347;28;4118;-72
2023/08/16 08:22:33;;;;;;;;;;;;;;;23.32;84.22;101633.78;5001855;28;4246;-74
2023/08/16 08:25:00;;;;;;;;;;;;;;;23.37;83.96;101632.59;5002382;28;4148;-74
2023/08/16 08:27:26;;;;;;;;;;;;;;;23.37;83.77;101632.59;5004029;28;4053;-72
2023/08/16 08:29:53;;;;;;;;;;;;;;;23.38;83.60;101639.88;5017395;28;4301;-73
2023/08/16 08:32:19;;;;;;;;;;;;;;;23.36;83.11;101637.63;5003721;28;4191;-74
2023/08/16 08:34:46;;;;;;;;;;;;;;;23.33;83.22;101638.94;5002473;28;4150;-72
2023/08/16 08:37:13;;;;;;;;;;;;;;;23.33;82.39;101647.59;5005342;28;4408;-74
2023/08/16 08:39:39;;;;;;;;;;;;;;;23.35;82.33;101644.81;5002478;28;4254;-75
2023/08/16 08:42:07;;;;;;;;;;;;;;;23.38;82.51;101643.50;5003516;28;4174;-74
2023/08/16 08:44:33;;;;;;;;;;;;;;;23.36;82.01;101640.50;5003179;28;4113;-74
2023/08/16 08:47:05;;;;;;;;;;;;;;;23.38;81.62;101649.28;5010132;28;4048;-74
2023/08/16 08:49:41;;;;;;;;;;;;;;;23.37;80.99;101642.00;5007974;28;4251;-74
2023/08/16 08:52:07;;;;;;;;;;;;;;;23.33;80.47;101650.50;5011504;28;4228;-74
2023/08/16 08:54:34;;;;;;;;;;;;;;;23.39;80.23;101650.03;5008568;28;4243;-74
2023/08/16 08:57:00;;;;;;;;;;;;;;;23.38;79.98;101649.28;5002317;28;4152;-74
2023/08/16 08:59:27;;;;;;;;;;;;;;;23.36;80.08;101646.28;5019872;28;4085;-74
2023/08/16 09:01:53;;;;;;;;;;;;;;;23.42;80.42;101655.25;5003174;28;4164;-74
2023/08/16 09:04:20;;;;;;;;;;;;;;;23.39;80.13;101655.81;5010427;28;4309;-74
2023/08/16 09:06:47;;;;;;;;;;;;;;;23.38;79.87;101657.94;5001740;28;4007;-73
2023/08/16 09:09:14;;;;;;;;;;;;;;;23.42;80.19;101654.50;5004128;28;4116;-74
2023/08/16 09:11:41;;;;;;;;;;;;;;;23.40;80.07;101658.03;5001509;28;4152;-74
2023/08/16 09:14:07;;;;;;;;;;;;;;;23.41;81.00;101664.59;5010717;28;4125;-74
2023/08/16 09:16:34;;;;;;;;;;;;;;;23.44;79.81;101650.97;5007880;28;4148;-74
2023/08/16 09:19:00;;;;;;;;;;;;;;;23.42;80.50;101649.47;5003135;28;4110;-74
2023/08/16 09:21:28;;;;;;;;;;;;;;;23.44;80.32;101650.97;5007231;28;3959;-70
2023/08/16 09:23:56;;;;;;;;;;;;;;;23.46;79.90;101651.06;4998961;28;4196;-75
2023/08/16 09:26:23;;;;;;;;;;;;;;;23.45;79.92;101643.78;5003402;28;3969;-74
2023/08/16 09:28:58;;;;;;;;;;;;;;;23.48;79.76;101651.16;5000568;28;4270;-73
2023/08/16 09:31:26;;;;;;;;;;;;;;;23.50;79.59;101648.34;5007579;28;4055;-65
2023/08/16 09:33:54;;;;;;;;;;;;;;;23.49;79.58;101647.63;5003335;28;4126;-63
2023/08/16 09:36:20;;;;;;;;;;;;;;;23.52;79.02;101645.56;5003777;28;4093;-63
2023/08/16 09:38:48;;;;;;;;;;;;;;;23.51;79.19;101644.06;5000769;28;3935;-63
2023/08/16 09:41:16;;;;;;;;;;;;;;;23.52;78.99;101640.50;5001989;28;4588;-64
2023/08/16 09:43:43;;;;;;;;;;;;;;;23.51;78.99;101635.41;5008364;28;4072;-63
2023/08/16 09:46:09;;;;;;;;;;;;;;;23.53;78.63;101641.28;5004571;28;4290;-63
2023/08/16 09:48:36;;;;;;;;;;;;;;;23.52;78.74;101640.50;5005683;28;3951;-63
2023/08/16 09:51:22;;;;;;;;;;;;;;;23.54;78.27;101636.97;5005579;28;4319;-63
2023/08/16 09:54:11;;;;;;;;;;;;;;;23.55;78.49;101632.69;5013652;28;4001;-67
2023/08/16 09:56:39;;;;;;;;;;;;;;;23.56;78.23;101634.91;4998831;28;4082;-62
2023/08/16 09:59:08;;;;;;;;;;;;;;;23.59;78.27;101638.66;4997948;28;4943;-63
2023/08/16 10:01:54;;;;;;;;;;;;;;;23.57;78.38;101624.09;4998498;28;4133;-63
2023/08/16 10:04:39;;;;;;;;;;;;;;;23.54;78.28;101620.38;4999819;28;4064;-63
2023/08/16 10:07:09;;;;;;;;;;;;;;;23.58;78.42;101625.59;4998387;28;4076;-63
2023/08/16 10:09:43;;;;;;;;;;;;;;;23.70;78.35;101625.41;4999312;28;4243;-64
2023/08/16 10:12:09;;;;;;;;;;;;;;;23.71;77.94;101633.44;5000892;28;4021;-65
2023/08/16 10:14:37;;;;;;;;;;;;;;;23.69;77.97;101629.72;5014024;28;4270;-65
2023/08/16 10:17:08;;;;;;;;;;;;;;;23.67;78.21;101623.84;5000760;28;4169;-65
2023/08/16 10:19:37;;;;;;;;;;;;;;;23.61;78.21;101624.28;4999860;28;4145;-68
2023/08/16 10:22:08;;;;;;;;;;;;;;;23.65;78.22;101618.69;5000367;28;4002;-67
2023/08/16 10:24:53;;;;;;;;;;;;;;;23.66;78.29;101620.16;4998249;28;4119;-68
2023/08/16 10:27:19;;;;;;;;;;;;;;;23.66;78.05;101614.38;4998858;28;4351;-67
2023/08/16 10:29:45;;;;;;;;;;;;;;;23.65;77.88;101615.81;5003204;28;4220;-67
2023/08/16 10:32:12;;;;;;;;;;;;;;;23.63;78.13;101612.81;5005723;28;4025;-68
2023/08/16 10:34:38;;;;;;;;;;;;;;;23.64;77.89;101614.31;5000057;28;4128;-68
2023/08/16 10:37:06;;;;;;;;;;;;;;;23.62;78.10;101608.44;4997216;28;4057;-68
2023/08/16 10:39:32;;;;;;;;;;;;;;;23.64;77.84;101605.66;4996676;28;4274;-67
2023/08/16 10:42:02;;;;;;;;;;;;;;;23.63;77.66;101613.56;5000366;28;3979;-66
2023/08/16 10:44:28;;;;;;;;;;;;;;;23.65;77.84;101610.03;5001299;28;3933;-67
2023/08/16 10:46:55;;;;;;;;;;;;;;;23.67;77.74;101615.91;5004389;28;5329;-67
2023/08/16 10:49:21;;;;;;;;;;;;;;;23.68;77.77;101610.84;4998118;28;3939;-66
2023/08/16 10:51:50;;;;;;;;;;;;;;;23.67;77.48;101615.16;4998467;28;4085;-66
2023/08/16 10:54:17;;;;;;;;;;;;;;;23.68;77.58;101610.84;5002224;28;4201;-67
2023/08/16 10:56:49;;;;;;;;;;;;;;;23.71;77.39;101610.28;4996435;28;3938;-66
2023/08/16 10:59:16;;;;;;;;;;;;;;;23.71;77.14;101610.28;5000659;28;4075;-66
2023/08/16 11:01:46;;;;;;;;;;;;;;;23.70;77.37;101614.56;5001527;28;4150;-67
2023/08/16 11:04:13;;;;;;;;;;;;;;;23.70;77.35;101620.34;4998742;28;4912;-66
2023/08/16 11:06:39;;;;;;;;;;;;;;;23.70;76.98;101623.25;5000852;28;4096;-66
2023/08/16 11:09:17;;;;;;;;;;;;;;;23.70;76.96;101620.34;5000985;28;5157;-66
2023/08/16 11:11:45;;;;;;;;;;;;;;;23.69;77.14;101621.78;5004079;28;4260;-66
2023/08/16 11:14:11;;;;;;;;;;;;;;;23.70;76.97;101623.25;5013451;28;4301;-66
2023/08/16 11:16:38;;;;;;;;;;;;;;;23.69;76.97;101621.78;4999687;28;4081;-66
2023/08/16 11:19:06;;;;;;;;;;;;;;;23.69;77.00;101621.78;5001509;28;4057;-66
2023/08/16 11:21:46;;;;;;;;;;;;;;;23.71;76.87;101624.00;5003995;28;4217;-66
2023/08/16 11:24:13;;;;;;;;;;;;;;;23.71;76.81;101616.09;5011076;28;4130;-66
2023/08/16 11:26:39;;;;;;;;;;;;;;;23.71;76.54;101616.09;5003712;28;3898;-66
2023/08/16 11:29:06;;;;;;;;;;;;;;;23.70;76.62;101614.56;5000289;28;4087;-66
2023/08/16 11:31:33;;;;;;;;;;;;;;;23.73;76.39;101624.84;5016449;28;4041;-66
2023/08/16 11:34:00;;;;;;;;;;;;;;;23.73;76.48;101616.19;5014427;28;4182;-66
2023/08/16 11:36:26;;;;;;;;;;;;;;;23.72;76.69;101623.34;5004203;28;4743;-66
2023/08/16 11:38:53;;;;;;;;;;;;;;;23.74;76.49;101614.78;5006891;28;3922;-66
2023/08/16 11:41:21;;;;;;;;;;;;;;;23.79;76.32;101619.34;5003164;28;3906;-67
2023/08/16 11:43:55;;;;;;;;;;;;;;;23.81;76.11;101619.44;5000735;28;4037;-68
2023/08/16 11:46:22;;;;;;;;;;;;;;;23.81;76.31;101619.44;5003707;28;4170;-66
2023/08/16 11:48:48;;;;;;;;;;;;;;;23.83;76.20;101616.63;5001490;28;3891;-67
2023/08/16 11:51:15;;;;;;;;;;;;;;;23.82;76.03;101609.38;5005351;28;4345;-66
2023/08/16 11:53:41;;;;;;;;;;;;;;;23.79;76.37;101610.66;5006055;28;4187;-67
2023/08/16 11:56:11;;;;;;;;;;;;;;;23.78;76.23;101617.88;5006810;28;4292;-66
2023/08/16 11:58:43;;;;;;;;;;;;;;;23.79;76.19;101615.72;5004943;28;3913;-66
2023/08/16 12:01:11;;;;;;;;;;;;;;;23.79;76.29;101616.44;5004603;28;4481;-66
2023/08/16 12:03:38;;;;;;;;;;;;;;;23.77;76.12;101613.47;5022922;28;4175;-65
2023/08/16 12:06:05;;;;;;;;;;;;;;;23.77;76.19;101616.34;5003362;28;4148;-66
2023/08/16 12:08:31;;;;;;;;;;;;;;;23.76;76.19;101612.00;5006888;28;4017;-66
2023/08/16 12:10:58;;;;;;;;;;;;;;;23.78;76.08;101603.41;5000679;28;4306;-66
2023/08/16 12:13:25;;;;;;;;;;;;;;;23.78;76.17;101612.09;5002534;28;4132;-65
2023/08/16 12:15:51;;;;;;;;;;;;;;;23.80;75.97;101600.59;5003915;28;4364;-66
2023/08/16 12:18:19;;;;;;;;;;;;;;;23.81;76.03;101604.25;5009395;28;4128;-66
2023/08/16 12:20:49;;;;;;;;;;;;;;;23.80;75.99;101606.38;5004248;28;4085;-65
2023/08/16 12:23:17;;;;;;;;;;;;;;;23.78;75.91;101602.66;5004884;28;4110;-65
2023/08/16 12:25:43;;;;;;;;;;;;;;;23.80;76.11;101603.50;5005072;28;4040;-65
2023/08/16 12:28:09;;;;;;;;;;;;;;;23.80;76.13;101600.59;5007601;28;3933;-65
2023/08/16 12:30:36;;;;;;;;;;;;;;;23.81;75.84;101604.25;5007902;28;5413;-66
2023/08/16 12:33:04;;;;;;;;;;;;;;;23.81;75.84;101596.31;5002999;28;4232;-65
2023/08/16 12:35:30;;;;;;;;;;;;;;;23.82;75.93;101602.81;5006133;28;4230;-65
2023/08/16 12:37:57;;;;;;;;;;;;;;;23.81;76.06;101602.09;5018845;28;4173;-67
2023/08/16 12:40:26;;;;;;;;;;;;;;;23.82;75.94;101597.03;5004573;28;4165;-67
2023/08/16 12:42:53;;;;;;;;;;;;;;;23.82;75.97;101592.03;5004003;28;4030;-67
2023/08/16 12:45:19;;;;;;;;;;;;;;;23.82;75.77;101592.03;5003037;28;4081;-64
2023/08/16 12:47:46;;;;;;;;;;;;;;;23.83;75.83;101593.50;5003718;28;4115;-65